createdAt,value
2022-12-18T00:01:32.337Z,99.90
2022-12-18T00:04:00.730Z,99.90
2022-12-18T00:06:30.268Z,99.90
2022-12-18T00:08:59.237Z,99.90
2022-12-18T00:11:29.645Z,99.90
2022-12-18T00:13:59.462Z,99.90
2022-12-18T00:16:28.731Z,99.90
2022-12-18T00:18:58.738Z,99.90
2022-12-18T00:21:26.044Z,99.90
2022-12-18T00:23:53.488Z,99.90
2022-12-18T00:26:26.962Z,99.90
2022-12-18T00:28:54.713Z,99.90
2022-12-18T00:31:25.314Z,99.90
2022-12-18T00:33:56.264Z,99.90
2022-12-18T00:36:27.084Z,99.90
2022-12-18T00:38:56.124Z,99.90
2022-12-18T00:41:42.942Z,99.90
2022-12-18T00:44:13.587Z,99.90
2022-12-18T00:46:41.785Z,99.90
2022-12-18T00:49:09.152Z,99.90
2022-12-18T00:51:36.372Z,99.90
2022-12-18T00:56:30.810Z,99.90
2022-12-18T00:58:57.753Z,99.90
2022-12-18T01:01:24.819Z,99.90
2022-12-18T01:03:58.555Z,99.90
2022-12-18T01:06:25.469Z,99.90
2022-12-18T01:11:21.707Z,99.90
2022-12-18T01:13:49.784Z,99.90
2022-12-18T01:16:18.682Z,99.90
2022-12-18T01:18:46.611Z,99.90
2022-12-18T01:21:16.989Z,99.90
2022-12-18T01:23:43.856Z,99.90
2022-12-18T01:26:15.672Z,99.90
2022-12-18T01:28:44.739Z,99.90
2022-12-18T01:31:22.413Z,99.90
2022-12-18T01:33:51.004Z,99.90
2022-12-18T01:36:27.882Z,99.90
2022-12-18T01:38:55.995Z,99.90
2022-12-18T01:41:27.221Z,99.90
2022-12-18T01:43:58.327Z,99.90
2022-12-18T01:49:02.440Z,99.90
2022-12-18T01:51:31.723Z,99.90
2022-12-18T01:54:00.644Z,99.90
2022-12-18T01:56:27.773Z,99.90
2022-12-18T01:59:06.166Z,99.90
2022-12-18T02:01:34.380Z,99.90
2022-12-18T02:04:25.405Z,99.90
2022-12-18T02:07:16.172Z,99.90
2022-12-18T02:09:52.336Z,99.90
2022-12-18T02:12:25.941Z,99.90
2022-12-18T02:15:18.799Z,99.90
2022-12-18T02:18:24.157Z,99.90
2022-12-18T02:21:23.301Z,99.90
2022-12-18T02:24:20.920Z,99.90
2022-12-18T02:27:02.796Z,99.90
2022-12-18T02:29:54.321Z,99.90
2022-12-18T02:32:29.677Z,99.90
2022-12-18T02:34:58.362Z,99.90
2022-12-18T02:37:28.188Z,99.90
2022-12-18T02:39:57.967Z,99.90
2022-12-18T02:42:25.637Z,99.90
2022-12-18T02:44:53.291Z,99.90
2022-12-18T02:47:25.774Z,99.90
2022-12-18T02:49:58.854Z,99.90
2022-12-18T02:53:04.036Z,99.90
2022-12-18T02:55:53.211Z,99.90
2022-12-18T02:58:50.511Z,99.90
2022-12-18T03:01:28.118Z,99.90
2022-12-18T03:04:08.661Z,99.90
2022-12-18T03:06:48.070Z,99.90
2022-12-18T03:09:23.385Z,99.90
2022-12-18T03:12:23.759Z,99.90
2022-12-18T03:15:00.905Z,99.90
2022-12-18T03:17:29.555Z,99.90
2022-12-18T03:20:00.123Z,99.90
2022-12-18T03:22:31.504Z,99.90
2022-12-18T03:25:01.336Z,99.90
2022-12-18T03:27:32.652Z,99.90
2022-12-18T03:30:13.226Z,99.90
2022-12-18T03:32:58.799Z,99.90
2022-12-18T03:35:36.780Z,99.90
2022-12-18T03:38:03.917Z,99.90
2022-12-18T03:40:51.337Z,99.90
2022-12-18T03:43:45.823Z,99.90
2022-12-18T03:46:59.082Z,99.90
2022-12-18T03:49:36.949Z,99.90
2022-12-18T03:52:24.590Z,99.90
2022-12-18T03:54:52.658Z,99.90
2022-12-18T03:57:28.080Z,99.90
2022-12-18T04:00:12.456Z,99.90
2022-12-18T04:02:45.168Z,99.90
2022-12-18T04:07:40.876Z,99.90
2022-12-18T04:10:10.491Z,99.90
2022-12-18T04:12:39.043Z,99.90
2022-12-18T04:15:07.252Z,99.90
2022-12-18T04:22:28.873Z,99.90
2022-12-18T04:27:23.180Z,99.90
2022-12-18T04:44:34.279Z,99.90
2022-12-18T05:14:03.865Z,99.90
2022-12-18T05:16:30.854Z,99.90
2022-12-18T05:21:25.341Z,99.90
2022-12-18T05:28:47.680Z,99.90
2022-12-18T05:31:15.714Z,99.90
2022-12-18T05:33:43.368Z,99.90
2022-12-18T05:36:12.295Z,99.90
2022-12-18T05:38:40.337Z,99.90
2022-12-18T05:43:38.219Z,99.90
2022-12-18T05:46:13.945Z,99.90
2022-12-18T05:51:12.268Z,99.90
2022-12-18T05:53:40.290Z,99.90
2022-12-18T05:56:18.357Z,99.90
2022-12-18T05:58:45.406Z,99.90
2022-12-18T06:01:20.875Z,99.90
2022-12-18T06:06:27.631Z,99.90
2022-12-18T06:08:56.827Z,99.90
2022-12-18T06:11:26.933Z,99.90
2022-12-18T06:13:58.742Z,99.90
2022-12-18T06:16:27.647Z,99.90
2022-12-18T06:18:57.569Z,99.90
2022-12-18T06:26:24.667Z,99.90
2022-12-18T06:38:45.565Z,99.90
2022-12-18T06:41:16.239Z,99.90
2022-12-18T06:53:35.291Z,99.90
2022-12-18T06:56:10.171Z,99.90
2022-12-18T07:01:08.555Z,99.90
2022-12-18T07:03:35.933Z,99.90
2022-12-18T07:20:49.408Z,99.90
2022-12-18T07:23:16.353Z,99.90
2022-12-18T07:52:56.452Z,99.90
2022-12-18T07:55:23.302Z,99.90
2022-12-18T08:02:49.701Z,99.90
2022-12-18T08:15:07.088Z,99.90
2022-12-18T08:20:02.405Z,99.90
2022-12-18T08:32:27.889Z,99.90
2022-12-18T08:42:35.090Z,99.90
2022-12-18T08:47:29.899Z,99.90
2022-12-18T08:49:56.829Z,99.90
2022-12-18T08:54:50.983Z,99.90
2022-12-18T08:57:17.913Z,99.90
2022-12-18T08:59:44.776Z,99.90
2022-12-18T09:02:12.964Z,99.90
2022-12-18T09:04:41.009Z,99.90
2022-12-18T09:07:08.153Z,99.90
2022-12-18T09:09:35.031Z,99.90
2022-12-18T09:12:01.985Z,99.90
2022-12-18T09:14:29.108Z,99.90
2022-12-18T09:16:56.095Z,99.90
2022-12-18T09:19:23.099Z,99.90
2022-12-18T09:21:50.036Z,99.90
2022-12-18T09:24:17.368Z,99.90
2022-12-18T09:26:47.394Z,99.70
2022-12-18T09:29:16.399Z,98.40
2022-12-18T09:31:45.908Z,98.90
2022-12-18T09:34:13.018Z,98.20
2022-12-18T09:36:40.207Z,99.70
2022-12-18T09:39:08.788Z,98.00
2022-12-18T09:41:56.755Z,97.50
2022-12-18T09:44:44.942Z,97.50
2022-12-18T09:47:27.118Z,97.60
2022-12-18T09:50:02.874Z,97.10
2022-12-18T09:52:44.609Z,96.70
2022-12-18T09:55:37.507Z,96.50
2022-12-18T09:58:21.921Z,96.60
2022-12-18T10:00:48.781Z,96.40
2022-12-18T10:03:16.935Z,96.30
2022-12-18T10:06:08.048Z,95.80
2022-12-18T10:08:58.154Z,95.40
2022-12-18T10:11:58.774Z,95.30
2022-12-18T10:14:41.481Z,95.20
2022-12-18T10:18:07.411Z,95.30
2022-12-18T10:20:48.937Z,95.30
2022-12-18T10:23:46.405Z,95.60
2022-12-18T10:26:14.991Z,95.50
2022-12-18T10:28:43.454Z,95.30
2022-12-18T10:31:25.459Z,94.90
2022-12-18T10:33:56.184Z,94.60
2022-12-18T10:36:25.722Z,95.00
2022-12-18T10:38:52.740Z,94.60
2022-12-18T10:41:24.170Z,95.20
2022-12-18T10:44:25.271Z,95.20
2022-12-18T10:47:07.470Z,95.20
2022-12-18T10:49:53.875Z,94.50
2022-12-18T10:52:24.506Z,95.00
2022-12-18T10:55:02.797Z,95.60
2022-12-18T10:57:34.446Z,95.50
2022-12-18T11:00:22.843Z,95.00
2022-12-18T11:02:50.254Z,95.00
2022-12-18T11:05:29.852Z,95.10
2022-12-18T11:07:58.153Z,94.90
2022-12-18T11:10:41.854Z,94.60
2022-12-18T11:13:24.294Z,94.40
2022-12-18T11:15:52.082Z,94.70
2022-12-18T11:18:33.414Z,94.20
2022-12-18T11:21:09.403Z,94.20
2022-12-18T11:23:38.620Z,94.00
2022-12-18T11:26:07.124Z,93.80
2022-12-18T11:28:48.883Z,93.90
2022-12-18T11:31:20.951Z,93.60
2022-12-18T11:34:32.189Z,93.00
2022-12-18T11:37:02.124Z,92.60
2022-12-18T11:39:47.754Z,92.10
2022-12-18T11:42:29.509Z,91.50
2022-12-18T11:45:12.278Z,91.00
2022-12-18T11:47:48.967Z,90.30
2022-12-18T11:50:26.138Z,90.10
2022-12-18T11:52:58.257Z,89.10
2022-12-18T11:55:46.644Z,88.60
2022-12-18T11:58:18.309Z,89.10
2022-12-18T12:01:15.931Z,87.20
2022-12-18T12:04:19.915Z,86.50
2022-12-18T12:07:12.383Z,86.10
2022-12-18T12:10:10.070Z,86.30
2022-12-18T12:12:56.352Z,86.50
2022-12-18T12:15:25.906Z,89.00
2022-12-18T12:18:42.332Z,89.40
2022-12-18T12:21:29.718Z,90.50
2022-12-18T12:24:49.760Z,91.50
2022-12-18T12:28:26.901Z,91.50
2022-12-18T12:31:20.088Z,92.10
2022-12-18T12:34:17.114Z,91.90
2022-12-18T12:37:45.665Z,92.20
2022-12-18T12:40:49.281Z,92.10
2022-12-18T12:43:32.434Z,92.00
2022-12-18T12:46:09.248Z,92.30
2022-12-18T12:48:48.799Z,92.80
2022-12-18T12:51:27.497Z,93.30
2022-12-18T12:53:58.420Z,93.60
2022-12-18T12:56:52.193Z,92.80
2022-12-18T13:00:04.868Z,92.40
2022-12-18T13:03:04.145Z,92.00
2022-12-18T13:05:56.074Z,91.80
2022-12-18T13:08:31.685Z,92.30
2022-12-18T13:11:19.947Z,91.70
2022-12-18T13:13:56.818Z,91.20
2022-12-18T13:16:28.389Z,90.70
2022-12-18T13:18:58.791Z,90.60
2022-12-18T13:21:32.293Z,90.50
2022-12-18T13:24:22.260Z,89.90
2022-12-18T13:26:49.645Z,88.80
2022-12-18T13:29:42.204Z,86.60
2022-12-18T13:32:25.909Z,87.40
2022-12-18T13:35:18.239Z,87.20
2022-12-18T13:37:54.212Z,85.50
2022-12-18T13:40:39.855Z,85.80
2022-12-18T13:43:51.607Z,85.70
2022-12-18T13:46:48.993Z,84.80
2022-12-18T13:49:28.553Z,84.90
2022-12-18T13:51:56.946Z,84.00
2022-12-18T13:54:40.132Z,84.40
2022-12-18T13:57:42.001Z,84.20
2022-12-18T14:00:29.536Z,85.00
2022-12-18T14:03:00.950Z,86.30
2022-12-18T14:05:33.552Z,87.70
2022-12-18T14:08:13.911Z,90.00
2022-12-18T14:10:49.195Z,91.00
2022-12-18T14:13:29.309Z,91.90
2022-12-18T14:15:57.779Z,92.70
2022-12-18T14:19:08.396Z,93.50
2022-12-18T14:21:41.413Z,94.20
2022-12-18T14:24:19.474Z,94.90
2022-12-18T14:26:51.268Z,95.40
2022-12-18T14:29:24.654Z,95.50
2022-12-18T14:32:18.318Z,95.70
2022-12-18T14:34:54.968Z,96.10
2022-12-18T14:37:27.407Z,96.40
2022-12-18T14:40:10.548Z,96.80
2022-12-18T14:42:38.756Z,97.10
2022-12-18T14:45:42.351Z,97.30
2022-12-18T14:48:12.872Z,97.60
2022-12-18T14:50:41.385Z,97.70
2022-12-18T14:53:23.917Z,97.80
2022-12-18T14:55:51.816Z,97.70
2022-12-18T14:58:19.845Z,97.90
2022-12-18T15:00:46.878Z,98.00
2022-12-18T15:03:21.474Z,98.10
2022-12-18T15:05:49.305Z,98.10
2022-12-18T15:08:35.788Z,98.20
2022-12-18T15:11:05.645Z,98.30
2022-12-18T15:13:35.883Z,98.70
2022-12-18T15:16:04.234Z,98.70
2022-12-18T15:18:36.699Z,98.90
2022-12-18T15:21:11.912Z,99.00
2022-12-18T15:23:45.194Z,99.10
2022-12-18T15:26:15.563Z,99.30
2022-12-18T15:28:58.394Z,99.60
2022-12-18T15:31:36.421Z,99.70
2022-12-18T15:34:21.647Z,99.80
2022-12-18T15:39:15.820Z,99.60
2022-12-18T15:42:02.785Z,99.90
2022-12-18T15:44:29.726Z,99.90
2022-12-18T15:49:24.340Z,99.90
2022-12-18T15:51:59.166Z,99.90
2022-12-18T15:57:25.503Z,99.90
2022-12-18T16:00:00.220Z,99.90
2022-12-18T16:02:29.047Z,99.90
2022-12-18T16:07:25.565Z,99.90
2022-12-18T16:09:53.686Z,99.90
2022-12-18T16:12:25.977Z,99.90
2022-12-18T16:19:47.827Z,99.90
2022-12-18T16:22:29.230Z,99.90
2022-12-18T16:24:57.586Z,99.90
2022-12-18T16:27:25.355Z,99.90
2022-12-18T16:29:52.351Z,99.90
2022-12-18T16:32:23.444Z,99.90
2022-12-18T16:34:50.699Z,99.90
2022-12-18T16:37:17.677Z,99.90
2022-12-18T16:39:45.641Z,99.90
2022-12-18T16:42:20.358Z,99.90
2022-12-18T16:44:49.432Z,99.90
2022-12-18T16:47:17.118Z,99.90
2022-12-18T16:54:41.791Z,99.90
2022-12-18T16:57:13.725Z,99.90
2022-12-18T16:59:40.654Z,99.90
2022-12-18T17:02:19.436Z,99.90
2022-12-18T17:04:53.097Z,99.90
2022-12-18T17:07:19.979Z,99.90
2022-12-18T17:14:41.564Z,99.90
2022-12-18T17:17:24.247Z,99.90
2022-12-18T17:19:52.685Z,99.90
2022-12-18T17:22:21.071Z,99.90
2022-12-18T17:24:47.999Z,99.90
2022-12-18T17:27:15.394Z,99.90
2022-12-18T17:29:47.186Z,99.90
2022-12-18T17:32:17.093Z,99.90
2022-12-18T17:37:11.415Z,99.90
2022-12-18T17:42:06.721Z,99.90
2022-12-18T17:44:34.772Z,99.90
2022-12-18T17:51:56.853Z,99.90
2022-12-18T17:54:23.805Z,99.90
2022-12-18T17:56:51.693Z,99.90
2022-12-18T18:04:15.760Z,99.90
2022-12-18T18:06:42.825Z,99.90
2022-12-18T18:12:07.143Z,99.90
2022-12-18T18:17:04.636Z,99.90
2022-12-18T18:19:33.985Z,99.90
2022-12-18T18:22:01.675Z,99.90
2022-12-18T18:24:30.008Z,99.90
2022-12-18T18:26:59.428Z,99.90
2022-12-18T18:29:30.342Z,99.90
2022-12-18T18:34:28.982Z,99.90
2022-12-18T18:36:59.190Z,99.90
2022-12-18T18:41:53.856Z,99.90
2022-12-18T18:44:25.788Z,99.90
2022-12-18T18:46:58.046Z,99.90
2022-12-18T18:49:28.618Z,99.90
2022-12-18T18:51:57.273Z,99.90
2022-12-18T18:54:25.489Z,99.90
2022-12-18T19:02:11.438Z,99.90
2022-12-18T19:07:15.524Z,99.90
2022-12-18T19:09:57.549Z,99.90
2022-12-18T19:12:44.827Z,99.90
2022-12-18T19:15:11.816Z,99.90
2022-12-18T19:17:40.713Z,99.90
2022-12-18T19:25:07.598Z,99.90
2022-12-18T19:30:07.052Z,99.90
2022-12-18T19:35:01.656Z,99.90
2022-12-18T19:45:00.306Z,99.90
2022-12-18T19:54:53.887Z,99.90
2022-12-18T20:19:34.180Z,99.90
2022-12-18T20:34:19.798Z,99.90
2022-12-18T20:36:47.348Z,99.90
2022-12-18T20:41:44.779Z,99.90
2022-12-18T20:44:22.910Z,99.90
2022-12-18T20:47:07.725Z,99.90
2022-12-18T20:52:05.992Z,99.90
2022-12-18T21:01:55.535Z,99.90
2022-12-18T21:09:27.612Z,99.90
2022-12-18T21:12:20.303Z,99.90
2022-12-18T21:19:43.802Z,99.90
2022-12-18T21:24:39.218Z,99.90
2022-12-18T21:29:34.775Z,99.90
2022-12-18T21:32:03.815Z,99.90
2022-12-18T21:34:32.664Z,99.90
2022-12-18T21:37:01.663Z,99.90
2022-12-18T21:39:30.706Z,99.90
2022-12-18T21:42:16.792Z,99.90
2022-12-18T21:44:45.073Z,99.90
2022-12-18T21:47:22.781Z,99.90
2022-12-18T21:49:54.201Z,99.90
2022-12-18T21:52:30.922Z,99.90
2022-12-18T21:55:10.287Z,99.90
2022-12-18T21:57:39.068Z,99.90
2022-12-18T22:00:07.973Z,99.90
2022-12-18T22:09:57.740Z,99.90
2022-12-18T22:15:12.746Z,99.90
2022-12-18T22:17:46.132Z,99.90
2022-12-18T22:30:06.288Z,99.90
2022-12-18T22:32:35.189Z,99.90
2022-12-18T22:35:10.354Z,99.90
2022-12-18T22:40:22.244Z,99.90
2022-12-18T22:47:50.239Z,99.90
2022-12-18T22:50:17.179Z,99.90
2022-12-18T23:00:14.013Z,99.90
2022-12-18T23:19:54.990Z,99.90
2022-12-18T23:27:16.511Z,99.90
2022-12-18T23:32:12.605Z,99.90
2022-12-18T23:34:39.605Z,99.90
2022-12-18T23:49:23.884Z,99.90
2022-12-18T23:51:54.053Z,99.90
2022-12-18T23:57:01.534Z,99.90
